sensor_id;sensor_type;location;lat;lon;timestamp;temperature;humidity
27384;DHT22;14851;51.166;4.760;2023-04-01T00:01:17;10.20;99.90
27384;DHT22;14851;51.166;4.760;2023-04-01T00:03:43;10.20;99.90
27384;DHT22;14851;51.166;4.760;2023-04-01T00:06:16;10.20;99.90
27384;DHT22;14851;51.166;4.760;2023-04-01T00:08:43;10.20;99.90
27384;DHT22;14851;51.166;4.760;2023-04-01T00:11:13;10.20;99.90
27384;DHT22;14851;51.166;4.760;2023-04-01T00:13:40;10.20;99.90
27384;DHT22;14851;51.166;4.760;2023-04-01T00:16:07;10.20;99.90
27384;DHT22;14851;51.166;4.760;2023-04-01T00:18:33;10.20;99.90
27384;DHT22;14851;51.166;4.760;2023-04-01T00:20:59;10.20;99.90
27384;DHT22;14851;51.166;4.760;2023-04-01T00:23:30;10.10;99.90
27384;DHT22;14851;51.166;4.760;2023-04-01T00:25:59;10.10;99.90
27384;DHT22;14851;51.166;4.760;2023-04-01T00:28:28;10.10;99.90
27384;DHT22;14851;51.166;4.760;2023-04-01T00:31:07;10.10;99.90
27384;DHT22;14851;51.166;4.760;2023-04-01T00:33:33;10.20;99.90
27384;DHT22;14851;51.166;4.760;2023-04-01T00:36:16;10.10;99.90
27384;DHT22;14851;51.166;4.760;2023-04-01T00:38:43;10.10;99.90
27384;DHT22;14851;51.166;4.760;2023-04-01T00:41:13;10.10;99.90
27384;DHT22;14851;51.166;4.760;2023-04-01T00:43:41;10.10;99.90
27384;DHT22;14851;51.166;4.760;2023-04-01T00:46:07;10.10;99.90
27384;DHT22;14851;51.166;4.760;2023-04-01T00:48:39;10.10;99.90
27384;DHT22;14851;51.166;4.760;2023-04-01T00:51:15;10.10;99.90
27384;DHT22;14851;51.166;4.760;2023-04-01T00:53:45;10.10;99.90
27384;DHT22;14851;51.166;4.760;2023-04-01T00:58:52;10.10;99.90
27384;DHT22;14851;51.166;4.760;2023-04-01T01:01:21;10.10;99.90
27384;DHT22;14851;51.166;4.760;2023-04-01T01:03:50;10.10;99.90
27384;DHT22;14851;51.166;4.760;2023-04-01T01:12:14;10.10;99.90
27384;DHT22;14851;51.166;4.760;2023-04-01T01:17:58;10.10;99.90
27384;DHT22;14851;51.166;4.760;2023-04-01T01:20:55;10.10;99.90
27384;DHT22;14851;51.166;4.760;2023-04-01T01:26:35;10.10;99.90
27384;DHT22;14851;51.166;4.760;2023-04-01T01:38:11;10.10;99.90
27384;DHT22;14851;51.166;4.760;2023-04-01T01:40:45;10.10;99.90
27384;DHT22;14851;51.166;4.760;2023-04-01T01:43:17;10.10;99.90
27384;DHT22;14851;51.166;4.760;2023-04-01T01:45:56;10.10;99.90
27384;DHT22;14851;51.166;4.760;2023-04-01T01:48:25;10.10;99.90
27384;DHT22;14851;51.166;4.760;2023-04-01T01:50:52;10.00;99.90
27384;DHT22;14851;51.166;4.760;2023-04-01T01:53:19;10.00;99.90
27384;DHT22;14851;51.166;4.760;2023-04-01T01:55:46;10.00;99.90
27384;DHT22;14851;51.166;4.760;2023-04-01T01:58:22;10.10;99.90
27384;DHT22;14851;51.166;4.760;2023-04-01T02:01:16;10.00;99.90
27384;DHT22;14851;51.166;4.760;2023-04-01T02:03:45;10.00;99.90
27384;DHT22;14851;51.166;4.760;2023-04-01T02:06:15;10.00;99.90
27384;DHT22;14851;51.166;4.760;2023-04-01T02:08:50;10.00;99.90
27384;DHT22;14851;51.166;4.760;2023-04-01T02:11:29;10.00;99.90
27384;DHT22;14851;51.166;4.760;2023-04-01T02:14:06;10.00;99.90
27384;DHT22;14851;51.166;4.760;2023-04-01T02:16:54;10.00;99.90
27384;DHT22;14851;51.166;4.760;2023-04-01T02:19:59;9.90;99.90
27384;DHT22;14851;51.166;4.760;2023-04-01T02:22:33;9.90;99.90
27384;DHT22;14851;51.166;4.760;2023-04-01T02:25:04;10.00;99.90
27384;DHT22;14851;51.166;4.760;2023-04-01T02:27:31;10.00;99.90
27384;DHT22;14851;51.166;4.760;2023-04-01T02:29:58;10.00;99.90
27384;DHT22;14851;51.166;4.760;2023-04-01T02:32:25;10.00;99.90
27384;DHT22;14851;51.166;4.760;2023-04-01T02:34:53;10.00;99.90
27384;DHT22;14851;51.166;4.760;2023-04-01T02:37:20;9.90;99.90
27384;DHT22;14851;51.166;4.760;2023-04-01T02:39:46;10.00;99.90
27384;DHT22;14851;51.166;4.760;2023-04-01T02:42:12;10.00;99.90
27384;DHT22;14851;51.166;4.760;2023-04-01T02:44:39;9.90;99.90
27384;DHT22;14851;51.166;4.760;2023-04-01T02:47:05;9.90;99.90
27384;DHT22;14851;51.166;4.760;2023-04-01T02:49:31;9.90;99.90
27384;DHT22;14851;51.166;4.760;2023-04-01T02:51:56;9.90;99.90
27384;DHT22;14851;51.166;4.760;2023-04-01T02:54:30;9.90;99.90
27384;DHT22;14851;51.166;4.760;2023-04-01T02:56:56;9.90;99.90
27384;DHT22;14851;51.166;4.760;2023-04-01T02:59:22;9.90;99.90
27384;DHT22;14851;51.166;4.760;2023-04-01T03:01:48;9.90;99.90
27384;DHT22;14851;51.166;4.760;2023-04-01T03:04:16;9.80;99.90
27384;DHT22;14851;51.166;4.760;2023-04-01T03:06:42;9.80;99.90
27384;DHT22;14851;51.166;4.760;2023-04-01T03:09:13;9.80;99.90
27384;DHT22;14851;51.166;4.760;2023-04-01T03:11:39;9.80;99.90
27384;DHT22;14851;51.166;4.760;2023-04-01T03:14:10;9.80;99.90
27384;DHT22;14851;51.166;4.760;2023-04-01T03:16:39;9.80;99.90
27384;DHT22;14851;51.166;4.760;2023-04-01T03:19:07;9.80;99.90
27384;DHT22;14851;51.166;4.760;2023-04-01T03:21:33;9.80;99.90
27384;DHT22;14851;51.166;4.760;2023-04-01T03:24:00;9.80;99.90
27384;DHT22;14851;51.166;4.760;2023-04-01T03:26:30;9.70;99.90
27384;DHT22;14851;51.166;4.760;2023-04-01T03:28:58;9.70;99.90
27384;DHT22;14851;51.166;4.760;2023-04-01T03:31:25;9.80;99.90
27384;DHT22;14851;51.166;4.760;2023-04-01T03:33:54;9.70;99.90
27384;DHT22;14851;51.166;4.760;2023-04-01T03:36:21;9.70;99.90
27384;DHT22;14851;51.166;4.760;2023-04-01T03:38:48;9.80;99.90
27384;DHT22;14851;51.166;4.760;2023-04-01T03:41:22;9.80;99.90
27384;DHT22;14851;51.166;4.760;2023-04-01T03:43:54;9.70;99.90
27384;DHT22;14851;51.166;4.760;2023-04-01T03:46:20;9.70;99.90
27384;DHT22;14851;51.166;4.760;2023-04-01T03:48:46;9.70;99.90
27384;DHT22;14851;51.166;4.760;2023-04-01T03:51:12;9.70;99.90
27384;DHT22;14851;51.166;4.760;2023-04-01T03:53:38;9.70;99.90
27384;DHT22;14851;51.166;4.760;2023-04-01T03:56:07;9.70;99.90
27384;DHT22;14851;51.166;4.760;2023-04-01T03:58:36;9.70;99.90
27384;DHT22;14851;51.166;4.760;2023-04-01T04:01:13;9.70;99.90
27384;DHT22;14851;51.166;4.760;2023-04-01T04:03:40;9.70;99.90
27384;DHT22;14851;51.166;4.760;2023-04-01T04:06:07;9.70;99.90
27384;DHT22;14851;51.166;4.760;2023-04-01T04:08:35;9.70;99.90
27384;DHT22;14851;51.166;4.760;2023-04-01T04:11:04;9.60;99.90
27384;DHT22;14851;51.166;4.760;2023-04-01T04:13:30;9.70;99.90
27384;DHT22;14851;51.166;4.760;2023-04-01T04:16:00;9.60;99.90
27384;DHT22;14851;51.166;4.760;2023-04-01T04:18:27;9.60;99.90
27384;DHT22;14851;51.166;4.760;2023-04-01T04:20:55;9.60;99.90
27384;DHT22;14851;51.166;4.760;2023-04-01T04:23:21;9.60;99.90
27384;DHT22;14851;51.166;4.760;2023-04-01T04:25:54;9.60;99.90
27384;DHT22;14851;51.166;4.760;2023-04-01T04:28:20;9.60;99.90
27384;DHT22;14851;51.166;4.760;2023-04-01T04:30:47;9.60;99.90
27384;DHT22;14851;51.166;4.760;2023-04-01T04:33:15;9.60;99.90
27384;DHT22;14851;51.166;4.760;2023-04-01T04:35:41;9.60;99.90
27384;DHT22;14851;51.166;4.760;2023-04-01T04:38:07;9.60;99.90
27384;DHT22;14851;51.166;4.760;2023-04-01T04:40:33;9.60;99.90
27384;DHT22;14851;51.166;4.760;2023-04-01T04:42:58;9.60;99.90
27384;DHT22;14851;51.166;4.760;2023-04-01T04:45:27;9.60;99.90
27384;DHT22;14851;51.166;4.760;2023-04-01T04:47:55;9.60;99.90
27384;DHT22;14851;51.166;4.760;2023-04-01T04:50:23;9.60;99.90
27384;DHT22;14851;51.166;4.760;2023-04-01T04:52:50;9.50;99.90
27384;DHT22;14851;51.166;4.760;2023-04-01T04:55:19;9.50;99.90
27384;DHT22;14851;51.166;4.760;2023-04-01T04:57:49;9.60;99.90
27384;DHT22;14851;51.166;4.760;2023-04-01T05:00:19;9.50;99.90
27384;DHT22;14851;51.166;4.760;2023-04-01T05:03:00;9.50;99.90
27384;DHT22;14851;51.166;4.760;2023-04-01T05:05:26;9.50;99.90
27384;DHT22;14851;51.166;4.760;2023-04-01T05:07:55;9.50;99.90
27384;DHT22;14851;51.166;4.760;2023-04-01T05:10:23;9.60;99.90
27384;DHT22;14851;51.166;4.760;2023-04-01T05:12:51;9.50;99.90
27384;DHT22;14851;51.166;4.760;2023-04-01T05:15:23;9.50;99.90
27384;DHT22;14851;51.166;4.760;2023-04-01T05:17:52;9.50;99.90
27384;DHT22;14851;51.166;4.760;2023-04-01T05:20:17;9.50;99.90
27384;DHT22;14851;51.166;4.760;2023-04-01T05:22:46;9.50;99.90
27384;DHT22;14851;51.166;4.760;2023-04-01T05:25:14;9.50;99.90
27384;DHT22;14851;51.166;4.760;2023-04-01T05:27:40;9.50;99.90
27384;DHT22;14851;51.166;4.760;2023-04-01T05:30:06;9.50;99.90
27384;DHT22;14851;51.166;4.760;2023-04-01T05:32:57;9.50;99.90
27384;DHT22;14851;51.166;4.760;2023-04-01T05:35:23;9.50;99.90
27384;DHT22;14851;51.166;4.760;2023-04-01T05:37:52;9.40;99.90
27384;DHT22;14851;51.166;4.760;2023-04-01T05:40:22;9.40;99.90
27384;DHT22;14851;51.166;4.760;2023-04-01T05:42:50;9.40;99.90
27384;DHT22;14851;51.166;4.760;2023-04-01T05:45:21;9.40;99.90
27384;DHT22;14851;51.166;4.760;2023-04-01T05:48:07;9.40;99.90
27384;DHT22;14851;51.166;4.760;2023-04-01T05:50:40;9.40;99.90
27384;DHT22;14851;51.166;4.760;2023-04-01T05:53:09;9.40;99.90
27384;DHT22;14851;51.166;4.760;2023-04-01T05:55:37;9.50;99.90
27384;DHT22;14851;51.166;4.760;2023-04-01T05:58:03;9.40;99.90
27384;DHT22;14851;51.166;4.760;2023-04-01T06:00:30;9.40;99.90
27384;DHT22;14851;51.166;4.760;2023-04-01T06:02:59;9.40;99.90
27384;DHT22;14851;51.166;4.760;2023-04-01T06:05:40;9.50;99.90
27384;DHT22;14851;51.166;4.760;2023-04-01T06:08:12;9.40;99.90
27384;DHT22;14851;51.166;4.760;2023-04-01T06:19:55;9.40;99.90
27384;DHT22;14851;51.166;4.760;2023-04-01T06:22:27;9.40;99.90
27384;DHT22;14851;51.166;4.760;2023-04-01T06:31:03;9.40;99.90
27384;DHT22;14851;51.166;4.760;2023-04-01T06:34:02;9.40;99.90
27384;DHT22;14851;51.166;4.760;2023-04-01T06:45:54;9.40;99.90
27384;DHT22;14851;51.166;4.760;2023-04-01T06:52:05;9.50;99.90
27384;DHT22;14851;51.166;4.760;2023-04-01T06:55:01;9.50;99.90
27384;DHT22;14851;51.166;4.760;2023-04-01T06:58:00;9.50;99.90
27384;DHT22;14851;51.166;4.760;2023-04-01T07:00:37;9.50;99.90
27384;DHT22;14851;51.166;4.760;2023-04-01T07:03:20;9.50;99.90
27384;DHT22;14851;51.166;4.760;2023-04-01T07:05:51;9.50;99.90
27384;DHT22;14851;51.166;4.760;2023-04-01T07:08:23;9.50;99.90
27384;DHT22;14851;51.166;4.760;2023-04-01T07:13:53;9.50;99.90
27384;DHT22;14851;51.166;4.760;2023-04-01T07:16:42;9.40;99.90
27384;DHT22;14851;51.166;4.760;2023-04-01T07:22:27;9.40;99.90
27384;DHT22;14851;51.166;4.760;2023-04-01T07:25:27;9.40;99.90
27384;DHT22;14851;51.166;4.760;2023-04-01T07:28:16;9.40;99.90
27384;DHT22;14851;51.166;4.760;2023-04-01T07:39:30;9.40;99.90
27384;DHT22;14851;51.166;4.760;2023-04-01T07:56:25;9.50;99.90
27384;DHT22;14851;51.166;4.760;2023-04-01T08:05:14;9.50;99.90
27384;DHT22;14851;51.166;4.760;2023-04-01T08:07:47;9.50;99.90
27384;DHT22;14851;51.166;4.760;2023-04-01T08:10:52;9.50;99.90
27384;DHT22;14851;51.166;4.760;2023-04-01T08:20:22;9.60;99.90
27384;DHT22;14851;51.166;4.760;2023-04-01T08:23:15;9.60;99.90
27384;DHT22;14851;51.166;4.760;2023-04-01T08:28:46;9.60;99.90
27384;DHT22;14851;51.166;4.760;2023-04-01T08:31:48;9.60;99.90
27384;DHT22;14851;51.166;4.760;2023-04-01T08:34:16;9.70;99.90
27384;DHT22;14851;51.166;4.760;2023-04-01T08:36:51;9.70;99.90
27384;DHT22;14851;51.166;4.760;2023-04-01T08:39:42;9.70;99.90
27384;DHT22;14851;51.166;4.760;2023-04-01T08:45:20;9.70;99.90
27384;DHT22;14851;51.166;4.760;2023-04-01T08:56:41;9.80;99.90
27384;DHT22;14851;51.166;4.760;2023-04-01T09:08:19;9.70;99.90
27384;DHT22;14851;51.166;4.760;2023-04-01T09:14:16;9.70;99.90
27384;DHT22;14851;51.166;4.760;2023-04-01T09:30:33;9.80;99.90
27384;DHT22;14851;51.166;4.760;2023-04-01T09:36:02;9.80;99.90
27384;DHT22;14851;51.166;4.760;2023-04-01T09:38:57;9.80;99.90
27384;DHT22;14851;51.166;4.760;2023-04-01T09:41:35;9.80;99.90
27384;DHT22;14851;51.166;4.760;2023-04-01T09:44:26;9.80;99.90
27384;DHT22;14851;51.166;4.760;2023-04-01T09:49:55;9.80;99.90
27384;DHT22;14851;51.166;4.760;2023-04-01T10:00:49;9.90;99.90
27384;DHT22;14851;51.166;4.760;2023-04-01T10:22:55;10.00;99.90
27384;DHT22;14851;51.166;4.760;2023-04-01T10:37:45;10.00;99.90
27384;DHT22;14851;51.166;4.760;2023-04-01T10:54:58;10.10;99.90
27384;DHT22;14851;51.166;4.760;2023-04-01T11:17:12;10.10;99.90
27384;DHT22;14851;51.166;4.760;2023-04-01T11:37:45;10.00;99.90
27384;DHT22;14851;51.166;4.760;2023-04-01T11:40:47;10.00;99.90
27384;DHT22;14851;51.166;4.760;2023-04-01T11:50:10;10.10;99.90
27384;DHT22;14851;51.166;4.760;2023-04-01T11:53:29;10.10;99.90
27384;DHT22;14851;51.166;4.760;2023-04-01T11:56:30;10.10;99.90
27384;DHT22;14851;51.166;4.760;2023-04-01T12:07:43;10.20;99.90
27384;DHT22;14851;51.166;4.760;2023-04-01T12:19:38;10.20;99.90
27384;DHT22;14851;51.166;4.760;2023-04-01T12:30:42;10.30;99.90
27384;DHT22;14851;51.166;4.760;2023-04-01T12:36:37;10.30;99.90
27384;DHT22;14851;51.166;4.760;2023-04-01T12:39:19;10.30;99.90
27384;DHT22;14851;51.166;4.760;2023-04-01T12:50:26;10.40;99.90
27384;DHT22;14851;51.166;4.760;2023-04-01T12:55:38;10.40;99.90
27384;DHT22;14851;51.166;4.760;2023-04-01T13:04:08;10.40;99.90
27384;DHT22;14851;51.166;4.760;2023-04-01T13:13:44;10.40;99.90
27384;DHT22;14851;51.166;4.760;2023-04-01T13:16:39;10.40;99.90
27384;DHT22;14851;51.166;4.760;2023-04-01T13:19:14;10.40;99.90
27384;DHT22;14851;51.166;4.760;2023-04-01T13:27:07;10.40;99.90
27384;DHT22;14851;51.166;4.760;2023-04-01T13:32:30;10.30;99.90
27384;DHT22;14851;51.166;4.760;2023-04-01T13:35:26;10.30;99.90
27384;DHT22;14851;51.166;4.760;2023-04-01T13:37:58;10.20;99.90
27384;DHT22;14851;51.166;4.760;2023-04-01T13:40:33;10.20;99.90
27384;DHT22;14851;51.166;4.760;2023-04-01T14:11:10;10.30;99.90
27384;DHT22;14851;51.166;4.760;2023-04-01T14:13:47;10.30;99.90
27384;DHT22;14851;51.166;4.760;2023-04-01T14:23:06;10.30;99.90
27384;DHT22;14851;51.166;4.760;2023-04-01T14:26:10;10.30;99.90
27384;DHT22;14851;51.166;4.760;2023-04-01T14:31:43;10.30;99.90
27384;DHT22;14851;51.166;4.760;2023-04-01T14:40:22;10.40;99.90
27384;DHT22;14851;51.166;4.760;2023-04-01T14:43:16;10.40;99.90
27384;DHT22;14851;51.166;4.760;2023-04-01T14:51:35;10.50;99.90
27384;DHT22;14851;51.166;4.760;2023-04-01T14:54:12;10.50;99.90
27384;DHT22;14851;51.166;4.760;2023-04-01T14:57:01;10.50;99.90
27384;DHT22;14851;51.166;4.760;2023-04-01T14:59:29;10.50;99.90
27384;DHT22;14851;51.166;4.760;2023-04-01T15:05:23;10.50;99.90
27384;DHT22;14851;51.166;4.760;2023-04-01T15:08:01;10.50;99.90
27384;DHT22;14851;51.166;4.760;2023-04-01T15:11:17;10.50;99.90
27384;DHT22;14851;51.166;4.760;2023-04-01T15:35:42;10.40;99.90
27384;DHT22;14851;51.166;4.760;2023-04-01T15:43:56;10.30;99.90
27384;DHT22;14851;51.166;4.760;2023-04-01T16:00:29;10.30;99.90
27384;DHT22;14851;51.166;4.760;2023-04-01T16:13:46;10.20;99.90
27384;DHT22;14851;51.166;4.760;2023-04-01T16:19:16;10.20;99.90
27384;DHT22;14851;51.166;4.760;2023-04-01T16:27:36;10.10;99.90
27384;DHT22;14851;51.166;4.760;2023-04-01T16:30:35;10.10;99.90
27384;DHT22;14851;51.166;4.760;2023-04-01T16:41:32;10.00;99.90
27384;DHT22;14851;51.166;4.760;2023-04-01T16:44:18;10.00;99.90
27384;DHT22;14851;51.166;4.760;2023-04-01T16:47:08;10.00;99.90
27384;DHT22;14851;51.166;4.760;2023-04-01T16:49:51;10.00;99.90
27384;DHT22;14851;51.166;4.760;2023-04-01T16:52:51;10.00;99.90
27384;DHT22;14851;51.166;4.760;2023-04-01T16:55:21;10.00;99.90
27384;DHT22;14851;51.166;4.760;2023-04-01T16:57:59;9.90;99.90
27384;DHT22;14851;51.166;4.760;2023-04-01T17:00:53;9.90;99.90
27384;DHT22;14851;51.166;4.760;2023-04-01T17:03:33;10.00;99.90
27384;DHT22;14851;51.166;4.760;2023-04-01T17:06:23;9.90;99.90
27384;DHT22;14851;51.166;4.760;2023-04-01T17:08:57;10.00;99.90
27384;DHT22;14851;51.166;4.760;2023-04-01T17:14:28;10.00;99.90
27384;DHT22;14851;51.166;4.760;2023-04-01T17:25:28;10.00;99.90
27384;DHT22;14851;51.166;4.760;2023-04-01T17:44:44;10.00;99.90
27384;DHT22;14851;51.166;4.760;2023-04-01T17:52:30;10.00;99.90
27384;DHT22;14851;51.166;4.760;2023-04-01T18:06:44;9.90;99.90
27384;DHT22;14851;51.166;4.760;2023-04-01T18:17:25;9.80;99.90
27384;DHT22;14851;51.166;4.760;2023-04-01T18:22:53;9.90;99.90
27384;DHT22;14851;51.166;4.760;2023-04-01T18:25:32;9.80;99.90
27384;DHT22;14851;51.166;4.760;2023-04-01T18:30:42;9.80;99.90
27384;DHT22;14851;51.166;4.760;2023-04-01T18:33:21;9.80;99.90
27384;DHT22;14851;51.166;4.760;2023-04-01T18:38:33;9.80;99.90
27384;DHT22;14851;51.166;4.760;2023-04-01T18:49:52;9.80;99.90
27384;DHT22;14851;51.166;4.760;2023-04-01T18:57:50;9.70;99.90
27384;DHT22;14851;51.166;4.760;2023-04-01T19:00:32;9.70;99.90
27384;DHT22;14851;51.166;4.760;2023-04-01T19:05:33;9.70;99.90
27384;DHT22;14851;51.166;4.760;2023-04-01T19:16:12;9.70;99.90
27384;DHT22;14851;51.166;4.760;2023-04-01T19:19:09;9.80;99.90
27384;DHT22;14851;51.166;4.760;2023-04-01T19:21:54;9.80;99.90
27384;DHT22;14851;51.166;4.760;2023-04-01T19:33:32;9.80;99.90
27384;DHT22;14851;51.166;4.760;2023-04-01T19:36:32;9.80;99.90
27384;DHT22;14851;51.166;4.760;2023-04-01T19:42:46;9.80;99.90
27384;DHT22;14851;51.166;4.760;2023-04-01T19:50:27;9.90;99.90
27384;DHT22;14851;51.166;4.760;2023-04-01T19:52:59;9.90;99.90
27384;DHT22;14851;51.166;4.760;2023-04-01T19:55:52;9.90;99.90
27384;DHT22;14851;51.166;4.760;2023-04-01T19:58:30;9.90;99.90
27384;DHT22;14851;51.166;4.760;2023-04-01T20:02:14;9.90;99.90
27384;DHT22;14851;51.166;4.760;2023-04-01T20:04:53;9.90;99.90
27384;DHT22;14851;51.166;4.760;2023-04-01T20:07:31;9.90;99.90
27384;DHT22;14851;51.166;4.760;2023-04-01T20:10:17;9.90;99.90
27384;DHT22;14851;51.166;4.760;2023-04-01T20:13:06;9.90;99.90
27384;DHT22;14851;51.166;4.760;2023-04-01T20:15:45;9.90;99.90
27384;DHT22;14851;51.166;4.760;2023-04-01T20:18:38;9.90;99.90
27384;DHT22;14851;51.166;4.760;2023-04-01T20:26:12;9.90;99.90
27384;DHT22;14851;51.166;4.760;2023-04-01T20:31:25;9.90;99.90
27384;DHT22;14851;51.166;4.760;2023-04-01T20:39:34;10.00;99.90
27384;DHT22;14851;51.166;4.760;2023-04-01T20:51:30;10.00;99.90
27384;DHT22;14851;51.166;4.760;2023-04-01T21:02:45;10.10;99.90
27384;DHT22;14851;51.166;4.760;2023-04-01T21:17:26;10.00;99.90
27384;DHT22;14851;51.166;4.760;2023-04-01T21:22:53;9.90;99.90
27384;DHT22;14851;51.166;4.760;2023-04-01T21:28:33;9.70;99.90
27384;DHT22;14851;51.166;4.760;2023-04-01T21:31:04;9.70;99.90
27384;DHT22;14851;51.166;4.760;2023-04-01T21:44:54;9.60;99.90
27384;DHT22;14851;51.166;4.760;2023-04-01T22:01:14;9.50;99.90
27384;DHT22;14851;51.166;4.760;2023-04-01T22:04:18;9.50;99.90
27384;DHT22;14851;51.166;4.760;2023-04-01T22:07:12;9.50;99.90
27384;DHT22;14851;51.166;4.760;2023-04-01T22:19:06;9.50;99.90
27384;DHT22;14851;51.166;4.760;2023-04-01T22:21:41;9.40;99.90
27384;DHT22;14851;51.166;4.760;2023-04-01T22:24:18;9.50;99.90
27384;DHT22;14851;51.166;4.760;2023-04-01T22:27:11;9.40;99.90
27384;DHT22;14851;51.166;4.760;2023-04-01T22:34:53;9.40;99.90
27384;DHT22;14851;51.166;4.760;2023-04-01T22:51:38;9.30;99.90
27384;DHT22;14851;51.166;4.760;2023-04-01T22:56:22;9.30;99.90
27384;DHT22;14851;51.166;4.760;2023-04-01T22:59:10;9.30;99.90
27384;DHT22;14851;51.166;4.760;2023-04-01T23:01:43;9.30;99.90
27384;DHT22;14851;51.166;4.760;2023-04-01T23:04:14;9.30;99.90
27384;DHT22;14851;51.166;4.760;2023-04-01T23:06:46;9.30;99.90
27384;DHT22;14851;51.166;4.760;2023-04-01T23:09:25;9.20;99.90
27384;DHT22;14851;51.166;4.760;2023-04-01T23:11:57;9.30;99.90
27384;DHT22;14851;51.166;4.760;2023-04-01T23:17:17;9.20;99.90
27384;DHT22;14851;51.166;4.760;2023-04-01T23:20:10;9.20;99.90
27384;DHT22;14851;51.166;4.760;2023-04-01T23:31:00;9.10;99.90
27384;DHT22;14851;51.166;4.760;2023-04-01T23:33:29;9.10;99.90
27384;DHT22;14851;51.166;4.760;2023-04-01T23:38:33;9.10;99.90
27384;DHT22;14851;51.166;4.760;2023-04-01T23:41:00;9.00;99.90
27384;DHT22;14851;51.166;4.760;2023-04-01T23:43:40;9.00;99.90
27384;DHT22;14851;51.166;4.760;2023-04-01T23:46:12;8.90;99.90
27384;DHT22;14851;51.166;4.760;2023-04-01T23:48:44;8.90;99.90
27384;DHT22;14851;51.166;4.760;2023-04-01T23:51:21;8.90;99.90
27384;DHT22;14851;51.166;4.760;2023-04-01T23:54:03;8.90;99.90
27384;DHT22;14851;51.166;4.760;2023-04-01T23:56:43;9.00;99.90
27384;DHT22;14851;51.166;4.760;2023-04-01T23:59:32;8.90;99.90
